createdAt,value
2022-09-27T00:04:49.857Z,99.90
2022-09-27T00:09:52.578Z,99.90
2022-09-27T00:14:55.419Z,99.90
2022-09-27T00:20:00.471Z,99.90
2022-09-27T00:25:05.983Z,99.90
2022-09-27T00:30:09.656Z,99.90
2022-09-27T00:35:12.922Z,99.90
2022-09-27T00:40:19.622Z,99.90
2022-09-27T00:45:22.733Z,99.90
2022-09-27T00:50:32.619Z,99.90
2022-09-27T00:55:52.079Z,99.90
2022-09-27T01:00:59.931Z,99.90
2022-09-27T01:06:03.410Z,99.90
2022-09-27T01:11:43.214Z,99.90
2022-09-27T01:17:06.676Z,99.90
2022-09-27T01:22:25.329Z,99.90
2022-09-27T01:28:07.573Z,99.90
2022-09-27T01:33:29.344Z,99.90
2022-09-27T01:38:48.170Z,99.90
2022-09-27T01:44:09.924Z,99.90
2022-09-27T01:49:24.908Z,99.90
2022-09-27T01:54:35.871Z,99.90
2022-09-27T02:00:06.102Z,99.90
2022-09-27T02:05:19.569Z,99.90
2022-09-27T02:10:34.305Z,99.90
2022-09-27T02:16:01.295Z,99.90
2022-09-27T02:21:20.149Z,99.90
2022-09-27T02:26:33.282Z,99.90
2022-09-27T02:31:36.322Z,99.90
2022-09-27T02:36:39.253Z,99.90
2022-09-27T02:41:42.179Z,99.90
2022-09-27T02:46:44.920Z,99.90
2022-09-27T02:51:52.192Z,99.90
2022-09-27T02:57:21.786Z,99.90
2022-09-27T03:02:49.245Z,99.90
2022-09-27T03:08:10.276Z,99.90
2022-09-27T03:13:13.671Z,99.90
2022-09-27T03:18:17.589Z,99.90
2022-09-27T03:23:52.478Z,99.90
2022-09-27T03:28:55.596Z,99.90
2022-09-27T03:33:58.543Z,99.90
2022-09-27T03:39:01.460Z,99.90
2022-09-27T03:44:04.694Z,99.90
2022-09-27T03:49:07.530Z,99.90
2022-09-27T03:54:10.819Z,99.90
2022-09-27T03:59:13.671Z,99.90
2022-09-27T04:04:38.928Z,99.90
2022-09-27T04:09:44.855Z,99.90
2022-09-27T04:14:48.138Z,99.90
2022-09-27T04:20:11.591Z,99.90
2022-09-27T04:25:17.768Z,99.90
2022-09-27T04:30:23.573Z,99.90
2022-09-27T04:36:04.649Z,99.90
2022-09-27T04:41:08.925Z,99.90
2022-09-27T04:46:15.193Z,99.90
2022-09-27T04:51:20.278Z,99.90
2022-09-27T04:56:23.359Z,99.90
2022-09-27T05:01:26.773Z,99.90
2022-09-27T05:06:35.545Z,99.90
2022-09-27T05:11:44.329Z,99.90
2022-09-27T05:16:54.480Z,99.90
2022-09-27T05:22:15.860Z,99.90
2022-09-27T05:27:20.732Z,99.90
2022-09-27T05:32:23.909Z,99.90
2022-09-27T05:37:40.437Z,99.90
2022-09-27T05:42:43.378Z,99.90
2022-09-27T05:47:54.373Z,99.90
2022-09-27T05:52:58.170Z,99.90
2022-09-27T05:58:08.930Z,99.90
2022-09-27T06:03:20.543Z,99.90
2022-09-27T06:09:02.800Z,99.90
2022-09-27T06:14:05.894Z,99.90
2022-09-27T06:19:15.259Z,99.90
2022-09-27T06:24:18.611Z,99.90
2022-09-27T06:29:22.509Z,99.90
2022-09-27T06:34:33.625Z,99.90
2022-09-27T06:39:36.903Z,99.90
2022-09-27T06:44:59.638Z,99.90
2022-09-27T06:50:21.048Z,99.90
2022-09-27T06:55:24.083Z,99.90
2022-09-27T07:00:27.535Z,99.90
2022-09-27T07:05:57.702Z,99.90
2022-09-27T07:11:20.854Z,99.90
2022-09-27T07:16:24.264Z,99.90
2022-09-27T07:21:27.370Z,99.90
2022-09-27T07:26:30.598Z,99.90
2022-09-27T07:31:34.490Z,99.90
2022-09-27T07:36:37.517Z,99.90
2022-09-27T07:41:43.166Z,99.90
2022-09-27T07:46:47.527Z,99.90
2022-09-27T07:51:56.589Z,99.90
2022-09-27T07:57:07.876Z,99.90
2022-09-27T08:02:21.990Z,99.90
2022-09-27T08:07:27.348Z,99.90
2022-09-27T08:12:32.306Z,99.90
2022-09-27T08:17:35.339Z,99.90
2022-09-27T08:22:44.515Z,99.90
2022-09-27T08:28:04.677Z,99.90
2022-09-27T08:33:14.070Z,99.90
2022-09-27T08:38:17.159Z,99.90
2022-09-27T08:43:19.953Z,99.90
2022-09-27T08:48:27.123Z,99.90
2022-09-27T08:53:45.297Z,99.90
2022-09-27T08:59:22.289Z,99.90
2022-09-27T09:04:35.027Z,99.90
2022-09-27T09:09:53.206Z,99.90
2022-09-27T09:14:57.777Z,99.90
2022-09-27T09:20:17.495Z,99.90
2022-09-27T09:25:56.189Z,99.90
2022-09-27T09:31:19.537Z,99.90
2022-09-27T09:36:39.513Z,99.90
2022-09-27T09:42:03.386Z,99.90
2022-09-27T09:47:26.744Z,99.90
2022-09-27T09:52:42.740Z,99.90
2022-09-27T09:58:01.608Z,99.90
2022-09-27T10:03:10.499Z,99.90
2022-09-27T10:08:22.014Z,99.90
2022-09-27T10:13:36.803Z,99.90
2022-09-27T10:18:46.285Z,99.90
2022-09-27T10:24:18.256Z,99.90
2022-09-27T10:29:37.231Z,99.90
2022-09-27T10:34:43.384Z,99.90
2022-09-27T10:39:49.166Z,99.90
2022-09-27T10:44:52.614Z,99.90
2022-09-27T10:50:45.902Z,99.90
2022-09-27T10:55:58.505Z,99.90
2022-09-27T11:01:12.548Z,99.90
2022-09-27T11:06:38.321Z,99.90
2022-09-27T11:11:45.632Z,99.90
2022-09-27T11:17:00.713Z,99.90
2022-09-27T11:22:21.302Z,99.90
2022-09-27T11:27:43.650Z,99.90
2022-09-27T11:33:21.013Z,99.90
2022-09-27T11:39:02.514Z,98.30
2022-09-27T11:44:24.533Z,98.80
2022-09-27T11:50:16.106Z,99.60
2022-09-27T11:55:46.482Z,96.80
2022-09-27T12:01:10.698Z,93.60
2022-09-27T12:06:35.903Z,94.70
2022-09-27T12:11:54.705Z,95.10
2022-09-27T12:16:58.760Z,97.30
2022-09-27T12:22:06.118Z,97.60
2022-09-27T12:27:21.982Z,99.90
2022-09-27T12:32:50.594Z,99.90
2022-09-27T12:38:05.900Z,99.90
2022-09-27T12:43:28.135Z,99.90
2022-09-27T12:48:49.945Z,99.90
2022-09-27T12:54:09.554Z,99.90
2022-09-27T12:59:35.334Z,99.90
2022-09-27T13:05:08.304Z,99.90
2022-09-27T13:10:41.883Z,99.90
2022-09-27T13:16:00.334Z,99.90
2022-09-27T13:21:09.295Z,99.90
2022-09-27T13:26:41.074Z,99.90
2022-09-27T13:31:59.203Z,99.90
2022-09-27T13:37:46.129Z,99.90
2022-09-27T13:43:10.923Z,99.90
2022-09-27T13:48:30.948Z,99.90
2022-09-27T13:53:38.379Z,99.90
2022-09-27T13:59:00.009Z,99.90
2022-09-27T14:04:42.634Z,99.90
2022-09-27T14:09:52.375Z,99.90
2022-09-27T14:15:00.331Z,99.90
2022-09-27T14:20:04.229Z,99.90
2022-09-27T14:25:18.744Z,99.90
2022-09-27T14:30:28.260Z,99.90
2022-09-27T14:36:09.600Z,99.90
2022-09-27T14:41:16.213Z,99.90
2022-09-27T14:46:32.513Z,99.90
2022-09-27T14:51:36.656Z,99.90
2022-09-27T14:56:39.811Z,99.90
2022-09-27T15:01:50.852Z,99.90
2022-09-27T15:06:55.132Z,99.90
2022-09-27T15:12:05.444Z,99.90
2022-09-27T15:17:21.185Z,99.90
2022-09-27T15:22:37.094Z,99.90
2022-09-27T15:27:40.452Z,99.90
2022-09-27T15:32:50.390Z,99.90
2022-09-27T15:38:10.176Z,99.90
2022-09-27T15:43:41.860Z,99.90
2022-09-27T15:48:44.786Z,99.90
2022-09-27T15:53:48.034Z,99.90
2022-09-27T15:58:51.111Z,99.90
2022-09-27T16:03:54.047Z,99.90
2022-09-27T16:08:56.744Z,99.90
2022-09-27T16:13:59.639Z,99.90
2022-09-27T16:19:02.679Z,99.90
2022-09-27T16:24:06.507Z,99.90
2022-09-27T16:29:15.103Z,99.90
2022-09-27T16:34:18.031Z,99.90
2022-09-27T16:39:20.948Z,99.90
2022-09-27T16:44:23.744Z,99.90
2022-09-27T16:49:45.334Z,99.90
2022-09-27T16:54:48.103Z,99.90
2022-09-27T16:59:50.921Z,99.90
2022-09-27T17:04:54.168Z,99.90
2022-09-27T17:09:58.282Z,99.90
2022-09-27T17:15:01.229Z,99.90
2022-09-27T17:20:05.173Z,99.90
2022-09-27T17:25:08.506Z,99.90
2022-09-27T17:30:13.808Z,99.90
2022-09-27T17:35:18.809Z,99.90
2022-09-27T17:40:21.867Z,99.90
2022-09-27T17:45:24.762Z,99.90
2022-09-27T17:50:28.992Z,99.90
2022-09-27T17:55:32.824Z,99.90
2022-09-27T18:00:35.626Z,99.90
2022-09-27T18:05:38.630Z,99.90
2022-09-27T18:10:42.679Z,99.90
2022-09-27T18:15:57.752Z,99.90
2022-09-27T18:21:03.826Z,99.90
2022-09-27T18:26:10.107Z,99.90
2022-09-27T18:36:37.729Z,99.90
2022-09-27T18:41:40.641Z,99.90
2022-09-27T18:46:44.191Z,99.90
2022-09-27T18:51:47.644Z,99.90
2022-09-27T18:56:52.539Z,99.90
2022-09-27T19:01:55.358Z,99.90
2022-09-27T19:06:58.349Z,99.90
2022-09-27T19:12:01.194Z,99.90
2022-09-27T19:17:04.328Z,99.90
2022-09-27T19:22:07.194Z,99.90
2022-09-27T19:27:10.286Z,99.90
2022-09-27T19:32:13.362Z,99.90
2022-09-27T19:37:16.541Z,99.90
2022-09-27T19:42:19.903Z,99.90
2022-09-27T19:47:22.763Z,99.90
2022-09-27T19:52:27.127Z,99.90
2022-09-27T19:57:36.000Z,99.90
2022-09-27T20:02:38.910Z,99.90
2022-09-27T20:07:41.840Z,99.90
2022-09-27T20:12:46.283Z,99.90
2022-09-27T20:17:49.911Z,99.90
2022-09-27T20:22:52.865Z,99.90
2022-09-27T20:27:55.780Z,99.90
2022-09-27T20:33:17.196Z,99.90
2022-09-27T20:38:20.854Z,99.90
2022-09-27T20:43:31.561Z,99.90
2022-09-27T20:48:42.362Z,99.90
2022-09-27T20:53:45.549Z,99.90
2022-09-27T20:58:50.375Z,99.90
2022-09-27T21:03:58.501Z,99.90
2022-09-27T21:09:04.760Z,99.90
2022-09-27T21:14:07.579Z,99.90
2022-09-27T21:19:10.454Z,99.90
2022-09-27T21:24:13.394Z,99.90
2022-09-27T21:29:16.641Z,99.90
2022-09-27T21:34:19.550Z,99.90
2022-09-27T21:39:22.271Z,99.90
2022-09-27T21:44:25.081Z,99.90
2022-09-27T21:49:29.850Z,99.90
2022-09-27T21:54:32.690Z,99.90
2022-09-27T21:59:35.420Z,99.90
2022-09-27T22:04:38.446Z,99.90
2022-09-27T22:09:41.272Z,99.90
2022-09-27T22:14:44.020Z,99.90
2022-09-27T22:19:46.720Z,99.90
2022-09-27T22:24:49.464Z,99.90
2022-09-27T22:29:52.183Z,99.90
2022-09-27T22:34:54.974Z,99.90
2022-09-27T22:39:57.793Z,99.90
2022-09-27T22:45:00.534Z,99.90
2022-09-27T22:50:03.466Z,99.90
2022-09-27T22:55:06.720Z,99.90
2022-09-27T23:00:10.313Z,99.90
2022-09-27T23:05:12.982Z,99.90
2022-09-27T23:10:15.719Z,99.90
2022-09-27T23:15:19.237Z,99.90
2022-09-27T23:20:22.783Z,99.90
2022-09-27T23:25:26.256Z,99.90
2022-09-27T23:30:30.314Z,99.90
2022-09-27T23:35:34.111Z,99.90
2022-09-27T23:40:36.956Z,99.90
2022-09-27T23:45:39.999Z,99.90
2022-09-27T23:50:45.866Z,99.90
2022-09-27T23:55:58.779Z,99.90
